KATY/ATY METAR and TAF weather

Enter ICAO airport designator
Station Type Date Time Source
KATY METAR 2021/09/24 01:53 UTC NOAA

KATY 240153Z AUTO 14003KT 10SM CLR 16/10 A2988 RMK AO2 SLP119 T01560100


Station Type Date Time Source
KATY Decoded METAR 2021/09/24 01:53 UTC NOAA

WATERTOWN MUNICIPAL AIRPORT, SD, United States (KATY) 44-54N 097-09W 532M
Sep 23, 2021 - 09:53 PM EDT / 2021.09.24 0153 UTC
Wind: from the SE (140 degrees) at 3 MPH (3 KT):0
Visibility: 10 mile(s):0
Sky conditions: clear
Temperature: 60.1 F (15.6 C)
Dew Point: 50.0 F (10.0 C)
Relative Humidity: 69%
Pressure (altimeter): 29.88 in. Hg (1011 hPa)
ob: KATY 240153Z AUTO 14003KT 10SM CLR 16/10 A2988 RMK AO2 SLP119 T01560100
cycle: 2

Station Type Date Time Source
KATY TAF 2021/09/23 18:24 UTC NOAA

TAF KATY 231723Z 2318/2418 16011KT P6SM SCT200
FM232200 18007KT P6SM SKC
FM241300 34010G22KT P6SM VCSH OVC090

Example: see airport list